createdAt,value
2019-04-01T00:00:58.574Z,81.90
2019-04-01T00:01:58.572Z,81.49
2019-04-01T00:02:58.564Z,81.28
2019-04-01T00:03:58.547Z,80.66
2019-04-01T00:04:58.533Z,81.70
2019-04-01T00:05:58.534Z,80.87
2019-04-01T00:06:58.508Z,80.87
2019-04-01T00:07:58.492Z,80.97
2019-04-01T00:08:58.490Z,81.28
2019-04-01T00:09:58.486Z,80.97
2019-04-01T00:10:58.460Z,81.11
2019-04-01T00:11:58.462Z,80.56
2019-04-01T00:12:58.525Z,81.73
2019-04-01T00:13:58.440Z,81.73
2019-04-01T00:14:58.448Z,81.42
2019-04-01T00:15:58.422Z,81.11
2019-04-01T00:16:58.419Z,81.01
2019-04-01T00:17:58.391Z,80.94
2019-04-01T00:19:03.443Z,81.84
2019-04-01T00:19:59.379Z,81.84
2019-04-01T00:20:58.354Z,81.84
2019-04-01T00:21:58.368Z,81.32
2019-04-01T00:22:58.568Z,81.46
2019-04-01T00:23:58.322Z,81.25
2019-04-01T00:24:58.361Z,81.56
2019-04-01T00:25:58.335Z,82.25
2019-04-01T00:26:58.470Z,82.04
2019-04-01T00:27:58.277Z,81.56
2019-04-01T00:28:58.264Z,81.94
2019-04-01T00:29:58.262Z,82.08
2019-04-01T00:30:58.285Z,81.98
2019-04-01T00:31:58.232Z,82.39
2019-04-01T00:32:58.242Z,82.60
2019-04-01T00:33:58.286Z,82.50
2019-04-01T00:34:58.204Z,82.08
2019-04-01T00:35:58.220Z,81.77
2019-04-01T00:36:58.228Z,81.98
2019-04-01T00:37:58.189Z,81.25
2019-04-01T00:38:58.222Z,81.39
2019-04-01T00:39:58.155Z,80.94
2019-04-01T00:40:58.185Z,82.01
2019-04-01T00:41:58.133Z,81.91
2019-04-01T00:42:58.117Z,82.01
2019-04-01T00:43:58.124Z,81.09
2019-04-01T00:44:58.096Z,81.19
2019-04-01T00:45:58.105Z,81.70
2019-04-01T00:46:58.096Z,81.81
2019-04-01T00:47:58.065Z,82.05
2019-04-01T00:48:58.062Z,81.60
2019-04-01T00:49:58.036Z,81.43
2019-04-01T00:50:58.026Z,81.84
2019-04-01T00:51:58.020Z,81.74
2019-04-01T00:52:58.057Z,82.26
2019-04-01T00:53:58.013Z,82.32
2019-04-01T00:54:58.054Z,82.78
2019-04-01T00:55:57.977Z,83.46
2019-04-01T00:56:57.966Z,83.87
2019-04-01T00:57:57.955Z,83.87
2019-04-01T00:58:58.033Z,83.46
2019-04-01T00:59:57.961Z,83.09
2019-04-01T01:00:57.922Z,84.12
2019-04-01T01:01:57.915Z,84.08
2019-04-01T01:02:57.900Z,83.77
2019-04-01T01:03:57.889Z,83.77
2019-04-01T01:04:57.889Z,83.56
2019-04-01T01:05:57.906Z,83.98
2019-04-01T01:06:57.913Z,83.50
2019-04-01T01:07:57.853Z,84.43
2019-04-01T01:08:57.873Z,85.05
2019-04-01T01:09:57.824Z,84.53
2019-04-01T01:10:57.813Z,84.74
2019-04-01T01:11:57.817Z,83.61
2019-04-01T01:12:57.971Z,84.84
2019-04-01T01:13:57.789Z,83.91
2019-04-01T01:14:57.775Z,84.01
2019-04-01T01:15:57.763Z,84.64
2019-04-01T01:16:57.769Z,84.84
2019-04-01T01:17:57.752Z,84.12
2019-04-01T01:18:57.745Z,84.01
2019-04-01T01:19:57.723Z,84.01
2019-04-01T01:20:57.710Z,84.01
2019-04-01T01:21:57.745Z,84.43
2019-04-01T01:22:57.704Z,84.12
2019-04-01T01:23:57.685Z,84.33
2019-04-01T01:24:57.709Z,84.12
2019-04-01T01:25:57.663Z,84.64
2019-04-01T01:26:57.653Z,85.16
2019-04-01T01:27:57.685Z,84.95
2019-04-01T01:28:57.689Z,85.26
2019-04-01T01:29:57.617Z,84.74
2019-04-01T01:30:57.611Z,84.95
2019-04-01T01:31:57.644Z,85.05
2019-04-01T01:32:57.605Z,85.30
2019-04-01T01:33:57.585Z,85.47
2019-04-01T01:34:57.567Z,85.50
2019-04-01T01:35:57.555Z,85.09
2019-04-01T01:36:57.570Z,84.58
2019-04-01T01:37:57.537Z,84.33
2019-04-01T01:38:57.539Z,84.12
2019-04-01T01:39:57.518Z,84.47
2019-04-01T01:40:57.502Z,84.06
2019-04-01T01:41:57.487Z,84.78
2019-04-01T01:42:57.496Z,84.01
2019-04-01T01:43:57.480Z,84.47
2019-04-01T01:44:57.494Z,84.16
2019-04-01T01:45:57.461Z,84.47
2019-04-01T01:46:57.495Z,84.58
2019-04-01T01:47:57.433Z,84.37
2019-04-01T01:48:57.442Z,83.95
2019-04-01T01:49:57.431Z,84.27
2019-04-01T01:50:57.400Z,83.64
2019-04-01T01:51:57.394Z,84.16
2019-04-01T01:52:57.388Z,84.27
2019-04-01T01:53:57.363Z,84.30
2019-04-01T01:54:57.436Z,84.78
2019-04-01T01:55:57.358Z,85.24
2019-04-01T01:56:57.335Z,84.92
2019-04-01T01:57:57.327Z,85.24
2019-04-01T01:58:57.339Z,84.51
2019-04-01T01:59:57.301Z,84.92
2019-04-01T02:00:57.317Z,84.61
2019-04-01T02:01:57.290Z,84.92
2019-04-01T02:02:57.275Z,84.82
2019-04-01T02:03:57.262Z,85.34
2019-04-01T02:04:57.255Z,84.20
2019-04-01T02:05:57.251Z,83.68
2019-04-01T02:06:57.225Z,84.41
2019-04-01T02:07:57.224Z,83.89
2019-04-01T02:08:57.225Z,85.24
2019-04-01T02:09:57.201Z,84.51
2019-04-01T02:10:57.237Z,84.30
2019-04-01T02:11:57.233Z,84.61
2019-04-01T02:12:57.164Z,84.23
2019-04-01T02:13:57.150Z,84.65
2019-04-01T02:14:57.231Z,84.55
2019-04-01T02:15:57.129Z,84.86
2019-04-01T02:16:57.123Z,85.38
2019-04-01T02:17:57.142Z,85.06
2019-04-01T02:18:57.095Z,85.27
2019-04-01T02:19:57.119Z,85.17
2019-04-01T02:20:57.078Z,84.75
2019-04-01T02:21:57.082Z,85.69
2019-04-01T02:22:57.071Z,85.06
2019-04-01T02:23:57.047Z,85.06
2019-04-01T02:24:57.034Z,85.38
2019-04-01T02:25:57.069Z,84.96
2019-04-01T02:26:57.023Z,85.52
2019-04-01T02:27:57.038Z,86.10
2019-04-01T02:28:57.005Z,85.21
2019-04-01T02:29:56.984Z,85.21
2019-04-01T02:30:56.979Z,84.55
2019-04-01T02:31:56.993Z,85.00
2019-04-01T02:32:56.972Z,85.31
2019-04-01T02:33:56.936Z,85.83
2019-04-01T02:34:56.938Z,85.11
2019-04-01T02:35:56.924Z,85.73
2019-04-01T02:36:56.923Z,85.21
2019-04-01T02:37:56.912Z,85.00
2019-04-01T02:38:56.895Z,85.31
2019-04-01T02:39:56.886Z,85.31
2019-04-01T02:40:56.880Z,85.31
2019-04-01T02:41:56.867Z,85.31
2019-04-01T02:42:56.848Z,85.94
2019-04-01T02:43:56.956Z,85.11
2019-04-01T02:44:56.819Z,85.00
2019-04-01T02:45:56.826Z,85.00
2019-04-01T02:46:56.798Z,86.15
2019-04-01T02:47:56.788Z,86.04
2019-04-01T02:48:56.781Z,86.76
2019-04-01T02:49:56.833Z,86.35
2019-04-01T02:50:56.751Z,86.25
2019-04-01T02:51:56.751Z,86.15
2019-04-01T02:52:56.736Z,85.52
2019-04-01T02:53:56.772Z,85.31
2019-04-01T02:54:56.722Z,85.25
2019-04-01T02:55:56.744Z,84.94
2019-04-01T02:56:56.699Z,85.14
2019-04-01T02:57:56.678Z,85.35
2019-04-01T02:58:56.680Z,85.46
2019-04-01T02:59:56.660Z,85.66
2019-04-01T03:00:56.651Z,85.35
2019-04-01T03:01:56.675Z,85.66
2019-04-01T03:02:56.654Z,86.29
2019-04-01T03:03:56.730Z,85.66
2019-04-01T03:04:56.613Z,84.63
2019-04-01T03:05:56.593Z,85.25
2019-04-01T03:06:56.594Z,85.25
2019-04-01T03:07:56.576Z,85.56
2019-04-01T03:08:56.562Z,85.46
2019-04-01T03:09:56.601Z,85.46
2019-04-01T03:10:56.565Z,85.04
2019-04-01T03:11:56.550Z,85.04
2019-04-01T03:12:56.530Z,85.04
2019-04-01T03:13:56.543Z,85.04
2019-04-01T03:14:56.526Z,84.63
2019-04-01T03:15:56.514Z,84.56
2019-04-01T03:16:56.513Z,84.98
2019-04-01T03:17:56.473Z,84.36
2019-04-01T03:18:56.466Z,85.60
2019-04-01T03:19:56.461Z,85.25
2019-04-01T03:20:56.449Z,84.98
2019-04-01T03:21:56.432Z,86.60
2019-04-01T03:22:56.456Z,86.22
2019-04-01T03:23:56.408Z,85.77
2019-04-01T03:24:56.402Z,86.22
2019-04-01T03:25:56.409Z,86.33
2019-04-01T03:26:56.405Z,86.33
2019-04-01T03:27:56.368Z,86.18
2019-04-01T03:28:56.367Z,86.29
2019-04-01T03:29:56.373Z,86.22
2019-04-01T03:30:56.358Z,86.02
2019-04-01T03:31:56.324Z,86.08
2019-04-01T03:32:56.317Z,85.81
2019-04-01T03:33:56.304Z,86.54
2019-04-01T03:34:56.296Z,84.88
2019-04-01T03:35:56.301Z,85.71
2019-04-01T03:36:56.302Z,85.74
2019-04-01T03:37:56.255Z,85.81
2019-04-01T03:38:56.277Z,86.02
2019-04-01T03:39:56.250Z,86.95
2019-04-01T03:40:56.226Z,87.05
2019-04-01T03:41:56.244Z,86.54
2019-04-01T03:42:56.200Z,86.12
2019-04-01T03:43:56.199Z,86.33
2019-04-01T03:44:56.192Z,86.22
2019-04-01T03:45:56.179Z,86.26
2019-04-01T03:46:56.179Z,86.16
2019-04-01T03:47:56.189Z,86.26
2019-04-01T03:48:56.138Z,86.26
2019-04-01T03:49:56.145Z,86.57
2019-04-01T03:50:56.116Z,85.53
2019-04-01T03:51:56.111Z,85.64
2019-04-01T03:52:56.117Z,85.64
2019-04-01T03:53:56.118Z,86.30
2019-04-01T03:54:56.078Z,86.09
2019-04-01T03:55:56.067Z,86.30
2019-04-01T03:56:56.062Z,86.30
2019-04-01T03:57:56.063Z,86.09
2019-04-01T03:58:56.038Z,86.30
2019-04-01T03:59:56.078Z,86.41
2019-04-01T04:00:56.014Z,86.55
2019-04-01T04:01:56.006Z,86.24
2019-04-01T04:02:56.011Z,86.34
2019-04-01T04:03:55.984Z,86.96
2019-04-01T04:04:55.980Z,86.93
2019-04-01T04:05:56.005Z,87.27
2019-04-01T04:06:55.956Z,86.72
2019-04-01T04:07:55.947Z,86.72
2019-04-01T04:08:55.945Z,87.48
2019-04-01T04:09:55.919Z,87.17
2019-04-01T04:10:55.924Z,87.17
2019-04-01T04:11:55.951Z,87.59
2019-04-01T04:12:55.944Z,88.10
2019-04-01T04:13:55.965Z,88.31
2019-04-01T04:14:55.928Z,88.31
2019-04-01T04:15:55.855Z,88.42
2019-04-01T04:16:55.849Z,88.25
2019-04-01T04:17:55.861Z,88.52
2019-04-01T04:18:55.848Z,88.00
2019-04-01T04:19:55.840Z,88.42
2019-04-01T04:20:55.839Z,88.31
2019-04-01T04:21:55.795Z,88.21
2019-04-01T04:22:55.806Z,87.90
2019-04-01T04:23:55.781Z,87.73
2019-04-01T04:24:55.787Z,87.73
2019-04-01T04:25:55.757Z,87.52
2019-04-01T04:26:55.738Z,88.42
2019-04-01T04:27:55.740Z,88.87
2019-04-01T04:28:55.729Z,88.67
2019-04-01T04:29:55.721Z,88.56
2019-04-01T04:30:55.716Z,87.94
2019-04-01T04:31:55.693Z,87.84
2019-04-01T04:32:55.680Z,87.52
2019-04-01T04:33:55.673Z,87.73
2019-04-01T04:34:57.506Z,87.94
2019-04-01T04:35:55.688Z,87.42
2019-04-01T04:36:55.640Z,87.84
2019-04-01T04:37:55.623Z,88.25
2019-04-01T04:38:55.609Z,88.15
2019-04-01T04:39:55.600Z,88.15
2019-04-01T04:40:55.646Z,89.50
2019-04-01T04:41:55.585Z,90.23
2019-04-01T04:42:55.582Z,89.29
2019-04-01T04:43:55.558Z,88.94
2019-04-01T04:44:55.550Z,89.60
2019-04-01T04:45:55.556Z,89.18
2019-04-01T04:46:55.564Z,88.98
2019-04-01T04:47:55.540Z,89.08
2019-04-01T04:48:55.521Z,89.50
2019-04-01T04:49:55.497Z,88.35
2019-04-01T04:50:55.512Z,88.35
2019-04-01T04:51:55.484Z,88.46
2019-04-01T04:52:55.473Z,87.52
2019-04-01T04:53:55.493Z,88.35
2019-04-01T04:54:55.444Z,88.46
2019-04-01T04:55:55.435Z,88.87
2019-04-01T04:56:55.440Z,88.25
2019-04-01T04:57:55.407Z,88.87
2019-04-01T04:58:55.443Z,88.77
2019-04-01T04:59:55.389Z,88.87
2019-04-01T05:00:55.382Z,88.35
2019-04-01T05:01:55.390Z,88.25
2019-04-01T05:02:55.379Z,88.35
2019-04-01T05:03:55.366Z,88.15
2019-04-01T05:04:55.372Z,88.25
2019-04-01T05:05:55.339Z,89.08
2019-04-01T05:06:55.330Z,88.98
2019-04-01T05:07:55.314Z,89.08
2019-04-01T05:08:55.368Z,89.18
2019-04-01T05:09:55.323Z,88.77
2019-04-01T05:10:55.284Z,88.98
2019-04-01T05:11:55.267Z,88.77
2019-04-01T05:12:55.266Z,88.81
2019-04-01T05:13:55.245Z,88.87
2019-04-01T05:14:55.263Z,88.29
2019-04-01T05:15:55.231Z,88.15
2019-04-01T05:16:55.245Z,88.67
2019-04-01T05:17:55.211Z,88.67
2019-04-01T05:18:55.229Z,88.56
2019-04-01T05:19:55.190Z,87.94
2019-04-01T05:20:55.165Z,87.73
2019-04-01T05:21:55.196Z,87.84
2019-04-01T05:22:55.142Z,87.77
2019-04-01T05:23:55.132Z,88.35
2019-04-01T05:24:55.162Z,88.46
2019-04-01T05:25:55.126Z,88.87
2019-04-01T05:26:55.110Z,89.02
2019-04-01T05:27:55.090Z,88.50
2019-04-01T05:28:55.081Z,88.56
2019-04-01T05:29:55.090Z,89.60
2019-04-01T05:30:55.074Z,89.60
2019-04-01T05:31:55.088Z,89.39
2019-04-01T05:32:55.101Z,89.50
2019-04-01T05:33:55.934Z,89.50
2019-04-01T05:34:55.031Z,89.39
2019-04-01T05:35:55.004Z,89.81
2019-04-01T05:36:54.996Z,89.25
2019-04-01T05:37:54.989Z,89.56
2019-04-01T05:38:54.995Z,89.46
2019-04-01T05:39:54.966Z,89.56
2019-04-01T05:40:54.963Z,89.25
2019-04-01T05:41:54.963Z,88.94
2019-04-01T05:42:54.927Z,89.04
2019-04-01T05:43:54.925Z,88.84
2019-04-01T05:44:54.936Z,89.25
2019-04-01T05:45:54.936Z,88.42
2019-04-01T05:46:54.893Z,88.59
2019-04-01T05:47:54.879Z,88.59
2019-04-01T05:48:54.873Z,89.42
2019-04-01T05:49:54.885Z,89.11
2019-04-01T05:50:54.851Z,89.11
2019-04-01T05:51:54.889Z,88.59
2019-04-01T05:52:54.849Z,89.52
2019-04-01T05:53:54.838Z,89.11
2019-04-01T05:54:54.830Z,90.62
2019-04-01T05:55:54.795Z,90.25
2019-04-01T05:56:54.788Z,90.31
2019-04-01T05:57:54.793Z,90.41
2019-04-01T05:58:54.797Z,89.27
2019-04-01T05:59:54.756Z,89.27
2019-04-01T06:00:54.748Z,88.85
2019-04-01T06:01:54.729Z,89.06
2019-04-01T06:02:54.737Z,88.30
2019-04-01T06:03:54.711Z,88.40
2019-04-01T06:04:54.734Z,88.30
2019-04-01T06:05:54.709Z,88.15
2019-04-01T06:06:54.686Z,88.57
2019-04-01T06:07:54.678Z,88.88
2019-04-01T06:08:54.656Z,88.57
2019-04-01T06:09:54.654Z,88.57
2019-04-01T06:10:54.638Z,88.32
2019-04-01T06:11:54.627Z,88.32
2019-04-01T06:12:54.658Z,88.32
2019-04-01T06:13:54.599Z,87.45
2019-04-01T06:14:54.589Z,87.24
2019-04-01T06:15:54.582Z,86.93
2019-04-01T06:16:54.574Z,87.30
2019-04-01T06:17:54.665Z,87.20
2019-04-01T06:18:54.550Z,87.06
2019-04-01T06:19:54.542Z,86.96
2019-04-01T06:20:54.530Z,86.75
2019-04-01T06:21:54.548Z,86.23
2019-04-01T06:22:54.529Z,85.99
2019-04-01T06:23:54.548Z,85.99
2019-04-01T06:24:54.496Z,85.16
2019-04-01T06:25:54.476Z,85.42
2019-04-01T06:26:54.558Z,84.42
2019-04-01T06:27:54.508Z,82.03
2019-04-01T06:28:54.453Z,77.93
2019-04-01T06:29:54.440Z,74.70
2019-04-01T06:30:54.504Z,72.65
2019-04-01T06:31:54.415Z,72.51
2019-04-01T06:32:54.415Z,70.46
2019-04-01T06:33:54.440Z,67.94
2019-04-01T06:34:54.387Z,67.02
2019-04-01T06:35:54.370Z,65.15
2019-04-01T06:36:54.360Z,64.20
2019-04-01T06:37:54.354Z,63.22
2019-04-01T06:38:54.352Z,62.07
2019-04-01T06:39:54.378Z,61.22
2019-04-01T06:40:54.342Z,61.94
2019-04-01T06:41:54.312Z,60.94
2019-04-01T06:42:54.301Z,60.82
2019-04-01T06:43:54.302Z,61.12
2019-04-01T06:44:54.274Z,61.73
2019-04-01T06:45:54.273Z,61.73
2019-04-01T06:46:54.254Z,61.25
2019-04-01T06:47:54.245Z,60.94
2019-04-01T06:48:54.235Z,60.69
2019-04-01T06:49:54.285Z,62.46
2019-04-01T06:50:54.220Z,62.57
2019-04-01T06:51:54.210Z,62.26
2019-04-01T06:52:54.215Z,61.82
2019-04-01T06:53:54.189Z,61.51
2019-04-01T06:54:54.167Z,61.76
2019-04-01T06:55:54.171Z,58.03
2019-04-01T06:56:54.210Z,58.82
2019-04-01T06:57:54.157Z,56.96
2019-04-01T06:58:54.145Z,57.17
2019-04-01T06:59:54.154Z,56.90
2019-04-01T07:00:54.146Z,56.27
2019-04-01T07:01:54.169Z,55.79
2019-04-01T07:02:54.119Z,55.68
2019-04-01T07:03:54.334Z,55.79
2019-04-01T07:04:54.083Z,54.49
2019-04-01T07:05:54.084Z,55.71
2019-04-01T07:06:54.120Z,53.04
2019-04-01T07:07:54.059Z,54.36
2019-04-01T07:08:54.041Z,53.14
2019-04-01T07:09:54.059Z,51.87
2019-04-01T07:10:54.016Z,49.95
2019-04-01T07:11:54.012Z,48.97
2019-04-01T07:12:54.107Z,47.74
2019-04-01T07:13:53.988Z,47.96
2019-04-01T07:14:53.974Z,46.15
2019-04-01T07:15:53.950Z,44.29
2019-04-01T07:16:53.937Z,43.14
2019-04-01T07:17:53.919Z,44.07
2019-04-01T07:18:53.938Z,44.07
2019-04-01T07:19:53.957Z,43.87
2019-04-01T07:20:53.920Z,44.59
2019-04-01T07:21:54.525Z,44.17
2019-04-01T07:22:53.916Z,43.71
2019-04-01T07:23:53.912Z,45.00
2019-04-01T07:24:53.864Z,45.57
2019-04-01T07:25:53.851Z,44.43
2019-04-01T07:26:53.856Z,44.31
2019-04-01T07:27:53.843Z,43.89
2019-04-01T07:28:53.863Z,42.98
2019-04-01T07:29:53.877Z,43.75
2019-04-01T07:30:53.791Z,45.49
2019-04-01T07:31:53.777Z,45.29
2019-04-01T07:32:53.803Z,43.95
2019-04-01T07:33:53.775Z,44.56
2019-04-01T07:34:53.774Z,44.48
2019-04-01T07:35:53.750Z,45.10
2019-04-01T07:36:53.735Z,47.05
2019-04-01T07:37:53.728Z,46.06
2019-04-01T07:38:53.709Z,47.19
2019-04-01T07:39:53.696Z,48.00
2019-04-01T07:40:53.696Z,46.38
2019-04-01T07:41:53.669Z,48.63
2019-04-01T07:42:53.658Z,48.35
2019-04-01T07:43:53.657Z,47.85
2019-04-01T07:44:54.402Z,48.27
2019-04-01T07:45:53.675Z,48.71
2019-04-01T07:46:53.624Z,51.26
2019-04-01T07:47:53.618Z,48.10
2019-04-01T07:48:53.685Z,49.31
2019-04-01T07:49:53.617Z,49.03
2019-04-01T07:50:53.595Z,48.95
2019-04-01T07:51:53.571Z,51.48
2019-04-01T07:52:55.412Z,51.81
2019-04-01T07:53:53.547Z,52.45
2019-04-01T07:54:53.537Z,52.60
2019-04-01T07:55:53.554Z,54.64
2019-04-01T07:56:53.522Z,54.21
2019-04-01T07:57:53.510Z,52.55
2019-04-01T07:58:53.495Z,52.30
2019-04-01T07:59:56.745Z,51.42
2019-04-01T08:00:53.513Z,51.06
2019-04-01T08:01:53.470Z,49.22
2019-04-01T08:02:53.459Z,51.18
2019-04-01T08:03:53.437Z,51.34
2019-04-01T08:04:53.429Z,50.90
2019-04-01T08:05:53.426Z,50.04
2019-04-01T08:06:53.431Z,51.14
2019-04-01T08:07:53.416Z,49.61
2019-04-01T08:08:53.550Z,51.01
2019-04-01T08:09:53.399Z,48.04
2019-04-01T08:10:53.384Z,49.03
2019-04-01T08:11:53.379Z,47.79
2019-04-01T08:12:53.352Z,49.08
2019-04-01T08:13:53.329Z,48.65
2019-04-01T08:14:53.330Z,48.32
2019-04-01T08:15:53.317Z,48.80
2019-04-01T08:16:53.388Z,49.41
2019-04-01T08:17:53.322Z,49.16
2019-04-01T08:18:53.286Z,48.41
2019-04-01T08:19:53.279Z,45.87
2019-04-01T08:20:53.279Z,47.02
2019-04-01T08:21:53.277Z,46.26
2019-04-01T08:22:53.268Z,44.66
2019-04-01T08:23:53.225Z,46.65
2019-04-01T08:24:53.229Z,50.31
2019-04-01T08:25:53.217Z,50.89
2019-04-01T08:26:53.222Z,48.31
2019-04-01T08:27:53.208Z,47.17
2019-04-01T08:28:53.185Z,46.48
2019-04-01T08:29:53.177Z,44.84
2019-04-01T08:30:53.165Z,46.89
2019-04-01T08:31:53.171Z,48.00
2019-04-01T08:32:53.186Z,46.79
2019-04-01T08:33:53.116Z,46.73
2019-04-01T08:34:53.107Z,48.46
2019-04-01T08:35:53.098Z,49.37
2019-04-01T08:36:53.089Z,48.03
2019-04-01T08:37:53.144Z,47.85
2019-04-01T08:38:55.459Z,47.72
2019-04-01T08:39:53.056Z,47.82
2019-04-01T08:40:53.043Z,47.38
2019-04-01T08:41:53.056Z,48.83
2019-04-01T08:42:53.030Z,49.23
2019-04-01T08:43:53.059Z,48.63
2019-04-01T08:44:52.999Z,50.76
2019-04-01T08:45:52.991Z,50.76
2019-04-01T08:46:53.034Z,49.64
2019-04-01T08:47:52.981Z,49.03
2019-04-01T08:48:52.969Z,49.54
2019-04-01T08:49:52.968Z,50.17
2019-04-01T08:50:52.986Z,48.93
2019-04-01T08:51:53.013Z,51.18
2019-04-01T08:52:52.932Z,49.13
2019-04-01T08:53:52.903Z,48.32
2019-04-01T08:54:52.911Z,50.76
2019-04-01T08:56:00.521Z,50.73
2019-04-01T08:56:53.874Z,50.12
2019-04-01T08:57:52.871Z,51.62
2019-04-01T08:58:52.891Z,48.07
2019-04-01T08:59:56.098Z,47.46
2019-04-01T09:00:52.857Z,49.06
2019-04-01T09:01:52.854Z,48.76
2019-04-01T09:02:52.807Z,48.46
2019-04-01T09:03:52.799Z,46.94
2019-04-01T09:04:52.795Z,48.35
2019-04-01T09:05:52.863Z,48.05
2019-04-01T09:06:52.770Z,47.82
2019-04-01T09:07:52.760Z,48.35
2019-04-01T09:08:52.751Z,49.77
2019-04-01T09:09:52.746Z,50.15
2019-04-01T09:10:52.723Z,47.31
2019-04-01T09:11:52.719Z,48.46
2019-04-01T09:12:52.757Z,47.64
2019-04-01T09:13:52.714Z,48.76
2019-04-01T09:14:52.711Z,48.76
2019-04-01T09:15:52.673Z,48.55
2019-04-01T09:16:52.655Z,48.88
2019-04-01T09:17:52.645Z,49.27
2019-04-01T09:18:52.633Z,48.96
2019-04-01T09:19:52.667Z,47.22
2019-04-01T09:20:52.616Z,47.82
2019-04-01T09:21:52.609Z,47.19
2019-04-01T09:22:52.591Z,47.67
2019-04-01T09:23:52.586Z,47.92
2019-04-01T09:24:52.598Z,47.19
2019-04-01T09:25:52.570Z,46.87
2019-04-01T09:26:52.547Z,46.91
2019-04-01T09:27:52.536Z,48.63
2019-04-01T09:28:52.531Z,47.39
2019-04-01T09:29:52.519Z,47.96
2019-04-01T09:30:52.550Z,46.54
2019-04-01T09:31:52.501Z,46.75
2019-04-01T09:32:52.488Z,47.15
2019-04-01T09:33:52.475Z,47.66
2019-04-01T09:34:52.468Z,46.83
2019-04-01T09:35:52.472Z,47.07
2019-04-01T09:36:52.475Z,47.35
2019-04-01T09:37:52.427Z,45.91
2019-04-01T09:38:52.424Z,46.42
2019-04-01T09:39:52.419Z,45.63
2019-04-01T09:40:52.402Z,46.89
2019-04-01T09:41:52.397Z,46.79
2019-04-01T09:42:52.410Z,48.39
2019-04-01T09:43:52.369Z,49.35
2019-04-01T09:44:52.377Z,47.08
2019-04-01T09:45:52.342Z,46.36
2019-04-01T09:46:52.336Z,44.31
2019-04-01T09:47:52.335Z,44.51
2019-04-01T09:48:52.371Z,44.19
2019-04-01T09:49:52.333Z,43.66
2019-04-01T09:50:52.290Z,43.69
2019-04-01T09:51:52.277Z,46.39
2019-04-01T09:52:52.272Z,45.16
2019-04-01T09:53:52.259Z,44.65
2019-04-01T09:54:52.409Z,42.32
2019-04-01T09:55:52.259Z,42.72
2019-04-01T09:56:52.242Z,42.61
2019-04-01T09:57:52.259Z,43.40
2019-04-01T09:58:52.215Z,41.19
2019-04-01T09:59:52.203Z,42.94
2019-04-01T10:00:53.365Z,42.33
2019-04-01T10:01:52.178Z,44.25
2019-04-01T10:02:52.171Z,43.32
2019-04-01T10:03:52.175Z,43.02
2019-04-01T10:04:52.198Z,42.61
2019-04-01T10:05:52.127Z,42.84
2019-04-01T10:06:52.134Z,43.46
2019-04-01T10:07:52.270Z,43.97
2019-04-01T10:08:52.092Z,43.46
2019-04-01T10:09:52.085Z,44.35
2019-04-01T10:10:52.127Z,44.13
2019-04-01T10:11:52.054Z,43.82
2019-04-01T10:12:52.067Z,43.40
2019-04-01T10:13:52.067Z,43.06
2019-04-01T10:14:52.026Z,43.95
2019-04-01T10:15:52.021Z,40.53
2019-04-01T10:16:52.025Z,40.92
2019-04-01T10:17:52.001Z,40.95
2019-04-01T10:18:51.989Z,41.77
2019-04-01T10:19:51.989Z,42.88
2019-04-01T10:20:51.960Z,41.67
2019-04-01T10:21:51.954Z,41.95
2019-04-01T10:22:51.994Z,41.79
2019-04-01T10:23:51.990Z,43.85
2019-04-01T10:24:51.923Z,43.65
2019-04-01T10:25:51.911Z,43.82
2019-04-01T10:26:51.911Z,42.52
2019-04-01T10:27:51.926Z,44.15
2019-04-01T10:28:51.874Z,44.37
2019-04-01T10:29:51.893Z,44.17
2019-04-01T10:30:51.874Z,44.02
2019-04-01T10:31:51.844Z,42.80
2019-04-01T10:32:51.843Z,42.50
2019-04-01T10:33:51.827Z,42.82
2019-04-01T10:34:51.822Z,43.20
2019-04-01T10:35:51.799Z,41.87
2019-04-01T10:36:51.835Z,41.65
2019-04-01T10:37:51.780Z,41.53
2019-04-01T10:38:51.773Z,43.16
2019-04-01T10:39:51.769Z,42.30
2019-04-01T10:40:51.780Z,42.40
2019-04-01T10:41:51.735Z,43.80
2019-04-01T10:42:51.736Z,42.19
2019-04-01T10:43:51.737Z,42.80
2019-04-01T10:44:51.710Z,44.05
2019-04-01T10:45:51.696Z,43.82
2019-04-01T10:46:51.718Z,44.13
2019-04-01T10:47:51.718Z,43.91
2019-04-01T10:48:51.747Z,43.59
2019-04-01T10:49:51.788Z,42.66
2019-04-01T10:50:51.741Z,42.78
2019-04-01T10:51:51.689Z,43.65
2019-04-01T10:52:51.646Z,44.47
2019-04-01T10:53:51.605Z,43.89
2019-04-01T10:54:51.678Z,45.53
2019-04-01T10:55:51.610Z,46.15
2019-04-01T10:56:51.640Z,46.07
2019-04-01T10:57:53.934Z,46.40
2019-04-01T10:58:51.568Z,47.20
2019-04-01T10:59:51.556Z,46.70
2019-04-01T11:00:51.533Z,46.20
2019-04-01T11:01:51.551Z,47.20
2019-04-01T11:02:51.622Z,46.80
2019-04-01T11:03:51.519Z,47.00
2019-04-01T11:04:51.551Z,47.74
2019-04-01T11:05:51.550Z,46.92
2019-04-01T11:06:51.469Z,48.42
2019-04-01T11:07:51.473Z,46.72
2019-04-01T11:08:51.534Z,46.34
2019-04-01T11:09:51.436Z,47.05
2019-04-01T11:10:51.443Z,48.44
2019-04-01T11:11:51.414Z,47.41
2019-04-01T11:12:51.422Z,46.70
2019-04-01T11:13:51.974Z,46.40
2019-04-01T11:14:52.145Z,46.91
2019-04-01T11:15:51.366Z,46.40
2019-04-01T11:16:51.438Z,46.75
2019-04-01T11:17:52.524Z,46.64
2019-04-01T11:18:51.352Z,47.45
2019-04-01T11:19:51.332Z,48.46
2019-04-01T11:20:51.310Z,47.55
2019-04-01T11:21:51.306Z,48.67
2019-04-01T11:22:51.316Z,47.75
2019-04-01T11:23:51.325Z,48.36
2019-04-01T11:24:51.281Z,47.78
2019-04-01T11:25:51.261Z,48.99
2019-04-01T11:26:51.254Z,48.08
2019-04-01T11:27:51.260Z,48.59
2019-04-01T11:28:51.236Z,48.39
2019-04-01T11:29:51.232Z,48.21
2019-04-01T11:30:51.230Z,48.61
2019-04-01T11:31:51.205Z,48.18
2019-04-01T11:32:51.199Z,48.79
2019-04-01T11:33:51.347Z,48.39
2019-04-01T11:34:51.195Z,48.36
2019-04-01T11:35:51.148Z,49.17
2019-04-01T11:36:51.189Z,48.85
2019-04-01T11:37:51.147Z,46.83
2019-04-01T11:38:51.122Z,46.95
2019-04-01T11:39:51.112Z,47.86
2019-04-01T11:40:51.139Z,48.36
2019-04-01T11:41:51.121Z,47.55
2019-04-01T11:42:51.155Z,48.97
2019-04-01T11:43:52.519Z,48.16
2019-04-01T11:44:52.526Z,47.83
2019-04-01T11:45:51.051Z,48.46
2019-04-01T11:46:51.063Z,46.95
2019-04-01T11:47:51.046Z,48.06
2019-04-01T11:48:51.029Z,50.18
2019-04-01T11:49:51.062Z,47.03
2019-04-01T11:50:51.029Z,48.52
2019-04-01T11:51:51.033Z,46.70
2019-04-01T11:52:50.973Z,46.80
2019-04-01T11:53:50.968Z,46.92
2019-04-01T11:54:50.961Z,47.53
2019-04-01T11:55:50.968Z,47.63
2019-04-01T11:56:50.937Z,47.51
2019-04-01T11:57:50.921Z,47.20
2019-04-01T11:58:50.903Z,46.72
2019-04-01T11:59:50.914Z,47.15
2019-04-01T12:00:50.891Z,48.57
2019-04-01T12:01:50.903Z,47.96
2019-04-01T12:02:50.910Z,46.95
2019-04-01T12:03:50.872Z,47.15
2019-04-01T12:04:50.847Z,48.16
2019-04-01T12:05:52.209Z,47.96
2019-04-01T12:06:50.826Z,48.67
2019-04-01T12:07:50.825Z,48.03
2019-04-01T12:08:50.839Z,46.62
2019-04-01T12:09:52.432Z,46.83
2019-04-01T12:10:50.772Z,46.91
2019-04-01T12:11:50.779Z,46.72
2019-04-01T12:12:50.786Z,47.03
2019-04-01T12:13:50.743Z,46.70
2019-04-01T12:14:50.735Z,45.99
2019-04-01T12:15:50.725Z,47.31
2019-04-01T12:16:50.735Z,47.53
2019-04-01T12:17:50.700Z,48.24
2019-04-01T12:18:50.719Z,46.72
2019-04-01T12:19:53.207Z,47.83
2019-04-01T12:20:50.674Z,47.53
2019-04-01T12:21:50.676Z,46.84
2019-04-01T12:22:50.668Z,46.75
2019-04-01T12:23:50.640Z,46.56
2019-04-01T12:24:50.636Z,47.55
2019-04-01T12:25:50.617Z,47.25
2019-04-01T12:26:50.608Z,48.59
2019-04-01T12:27:50.599Z,49.10
2019-04-01T12:28:50.602Z,47.47
2019-04-01T12:29:50.589Z,47.27
2019-04-01T12:30:52.021Z,48.18
2019-04-01T12:31:50.965Z,47.78
2019-04-01T12:32:50.548Z,47.98
2019-04-01T12:33:50.534Z,48.79
2019-04-01T12:34:50.558Z,48.06
2019-04-01T12:35:50.546Z,46.84
2019-04-01T12:36:50.498Z,46.64
2019-04-01T12:37:50.497Z,46.95
2019-04-01T12:38:53.548Z,46.84
2019-04-01T12:39:50.471Z,46.92
2019-04-01T12:40:50.498Z,46.72
2019-04-01T12:41:50.522Z,47.13
2019-04-01T12:42:50.892Z,46.52
2019-04-01T12:43:50.424Z,46.42
2019-04-01T12:44:50.429Z,46.83
2019-04-01T12:45:50.408Z,46.83
2019-04-01T12:46:50.412Z,46.62
2019-04-01T12:47:50.418Z,46.62
2019-04-01T12:48:50.416Z,47.53
2019-04-01T12:49:50.404Z,47.23
2019-04-01T12:50:50.377Z,47.53
2019-04-01T12:51:50.341Z,46.92
2019-04-01T12:52:50.339Z,47.13